Court-Saint-Etienne, Belgium
Current Conditions -  °F | °C
As of 5:25 PM on Saturday 22 Nov 2014 (Local Time) from EBBE Reporting Station
Scattered Clouds Scattered Clouds  
Wind Chill: 54°   Ceiling: Unl
Heat Index: 54°   Visibility: 6mi
Dew Point: 46°   Wind: 5mph
Humidity: 77%   Direction: 140°SE
Pressure: 30.03"   Gusts: NA
Location:  50.63°N, 4.57°E
Report Text: EBBE 221625Z AUTO 14004KT 9999 SCT170/// 12/08 Q1017 BLU
Loading
Personal Weather Stations






























Interactive Weather Map New forecast layout! Learn more

10-Day Weather Forecast

Advertisements
Track Severe Weather on mobile